Time;durP1;ratioP1;P1;durP2;ratioP2;P2;SDS_P1;SDS_P2;PMS_P1;PMS_P2;Temp;Humidity;BMP_temperature;BMP_pressure;BME280_temperature;BME280_humidity;BME280_pressure;Samples;Min_cycle;Max_cycle;Signal;HPM_P1;HPM_P2
2022/12/06 00:01:06;;;;;;;8.53;4.63;;;5.50;99.90;;;;;;5013286;28;20686;-67
2022/12/06 00:03:33;;;;;;;8.10;4.33;;;5.50;99.90;;;;;;5028509;28;20831;-67
2022/12/06 00:06:02;;;;;;;10.23;4.57;;;5.50;99.90;;;;;;5028980;28;20215;-66
2022/12/06 00:08:29;;;;;;;8.37;4.20;;;5.50;99.90;;;;;;5009786;28;20210;-67
2022/12/06 00:10:56;;;;;;;13.50;5.00;;;5.50;99.90;;;;;;4994215;28;20202;-66
2022/12/06 00:13:23;;;;;;;9.63;4.60;;;5.50;99.90;;;;;;5024179;28;20354;-67
2022/12/06 00:15:51;;;;;;;9.90;4.93;;;5.50;99.90;;;;;;5020473;28;22132;-66
2022/12/06 00:18:17;;;;;;;9.17;4.80;;;5.50;99.90;;;;;;5008372;28;20231;-66
2022/12/06 00:20:44;;;;;;;9.50;5.27;;;5.50;99.90;;;;;;5019280;28;20225;-67
2022/12/06 00:23:11;;;;;;;14.13;5.03;;;5.50;99.90;;;;;;5017990;28;20213;-66
2022/12/06 00:25:38;;;;;;;10.27;5.13;;;5.40;99.90;;;;;;4982604;28;20244;-66
2022/12/06 00:28:05;;;;;;;12.27;5.00;;;5.50;99.90;;;;;;5021962;28;20198;-66
2022/12/06 00:30:32;;;;;;;13.03;5.13;;;5.50;99.90;;;;;;5024976;28;20197;-66
2022/12/06 00:33:00;;;;;;;16.20;5.10;;;5.50;99.90;;;;;;5016024;28;20201;-66
2022/12/06 00:35:26;;;;;;;8.87;4.70;;;5.50;99.90;;;;;;5025456;28;20217;-66
2022/12/06 00:37:53;;;;;;;9.93;4.43;;;5.60;99.90;;;;;;5015243;28;20992;-67
2022/12/06 00:40:20;;;;;;;8.50;4.67;;;5.50;99.90;;;;;;4988474;28;20232;-66
2022/12/06 00:42:47;;;;;;;10.47;5.10;;;5.50;99.90;;;;;;5025409;28;20676;-66
2022/12/06 00:45:14;;;;;;;18.97;4.90;;;5.50;99.90;;;;;;5014307;28;20762;-67
2022/12/06 00:47:40;;;;;;;10.77;4.80;;;5.50;99.90;;;;;;5025793;28;20699;-66
2022/12/06 00:50:10;;;;;;;10.53;4.97;;;5.50;99.90;;;;;;5012363;28;20387;-67
2022/12/06 00:52:37;;;;;;;8.13;4.77;;;5.50;99.90;;;;;;5024393;28;20304;-66
2022/12/06 00:55:04;;;;;;;14.80;5.90;;;5.50;99.90;;;;;;4991185;28;20205;-67
2022/12/06 00:57:31;;;;;;;10.50;5.37;;;5.50;99.90;;;;;;5009178;28;20664;-66
2022/12/06 00:59:57;;;;;;;12.57;5.80;;;5.50;99.90;;;;;;5013859;28;20995;-66
2022/12/06 01:02:24;;;;;;;10.10;5.00;;;5.50;99.90;;;;;;5020687;28;20889;-67
2022/12/06 01:04:51;;;;;;;13.63;5.87;;;5.60;99.90;;;;;;5011851;28;20209;-66
2022/12/06 01:07:19;;;;;;;14.83;6.27;;;5.60;99.90;;;;;;5023092;28;20216;-66
2022/12/06 01:09:46;;;;;;;9.63;5.37;;;5.60;99.90;;;;;;5012200;28;20213;-65
2022/12/06 01:12:13;;;;;;;10.27;5.00;;;5.50;99.90;;;;;;4986602;28;20217;-66
2022/12/06 01:14:39;;;;;;;7.47;4.80;;;5.60;99.90;;;;;;5014952;28;20197;-66
2022/12/06 01:17:06;;;;;;;11.20;5.60;;;5.50;99.90;;;;;;5023766;28;20233;-66
2022/12/06 01:19:33;;;;;;;10.30;5.00;;;5.60;99.90;;;;;;5025942;28;20209;-66
2022/12/06 01:22:00;;;;;;;10.50;5.83;;;5.50;99.90;;;;;;5009504;28;20201;-67
2022/12/06 01:24:28;;;;;;;10.07;5.20;;;5.50;99.90;;;;;;5007396;28;20295;-67
2022/12/06 01:26:55;;;;;;;7.73;4.77;;;5.50;99.90;;;;;;4981771;28;20714;-66
2022/12/06 01:29:21;;;;;;;8.83;5.37;;;5.60;99.90;;;;;;5017017;28;20585;-67
2022/12/06 01:31:48;;;;;;;8.97;5.27;;;5.50;99.90;;;;;;5017182;28;20278;-66
2022/12/06 01:34:16;;;;;;;11.03;5.20;;;5.60;99.90;;;;;;5025216;28;20221;-67
2022/12/06 01:36:44;;;;;;;10.70;5.60;;;5.50;99.90;;;;;;5005359;28;20327;-67
2022/12/06 01:39:11;;;;;;;10.17;5.10;;;5.60;99.90;;;;;;5023987;28;20233;-65
2022/12/06 01:41:39;;;;;;;14.03;4.93;;;5.60;99.90;;;;;;4999372;28;20237;-66
2022/12/06 01:44:07;;;;;;;7.50;4.63;;;5.60;99.90;;;;;;5027575;28;20571;-65
2022/12/06 01:46:38;;;;;;;8.70;4.80;;;5.50;99.90;;;;;;5006745;28;20205;-66
2022/12/06 01:49:21;;;;;;;9.93;4.90;;;5.50;99.90;;;;;;5020637;28;20199;-65
2022/12/06 01:51:53;;;;;;;7.43;4.17;;;5.50;99.90;;;;;;5003978;28;20230;-65
2022/12/06 01:54:21;;;;;;;7.73;4.67;;;5.50;99.90;;;;;;5023171;28;20197;-65
2022/12/06 01:56:52;;;;;;;7.60;5.03;;;5.50;99.90;;;;;;4992622;28;20826;-66
2022/12/06 01:59:19;;;;;;;13.27;4.83;;;5.50;99.90;;;;;;5009498;28;20214;-65
2022/12/06 02:01:47;;;;;;;8.90;5.17;;;5.50;99.90;;;;;;5024129;28;20941;-66
2022/12/06 02:04:14;;;;;;;10.03;5.80;;;5.40;99.90;;;;;;5001901;28;20202;-65
2022/12/06 02:06:42;;;;;;;6.43;4.60;;;5.50;99.90;;;;;;5011577;28;20213;-66
2022/12/06 02:09:11;;;;;;;9.60;5.30;;;5.50;99.90;;;;;;5009469;28;20202;-65
2022/12/06 02:11:40;;;;;;;7.40;4.90;;;5.50;99.90;;;;;;5023257;28;20205;-65
2022/12/06 02:14:12;;;;;;;8.30;4.77;;;5.40;99.90;;;;;;4989652;28;20223;-65
2022/12/06 02:16:57;;;;;;;8.83;4.63;;;5.50;99.90;;;;;;5021658;28;20944;-65
2022/12/06 02:19:50;;;;;;;10.60;5.40;;;5.40;99.90;;;;;;5001052;28;20197;-65
2022/12/06 02:22:26;;;;;;;7.73;4.70;;;5.50;99.90;;;;;;5006691;28;20213;-65
2022/12/06 02:25:25;;;;;;;8.90;5.10;;;5.50;99.90;;;;;;5014311;28;20216;-65
2022/12/06 02:28:08;;;;;;;13.30;5.27;;;5.40;99.90;;;;;;5006167;28;24274;-67
2022/12/06 02:30:46;;;;;;;11.47;5.33;;;5.40;99.90;;;;;;5007477;28;21095;-65
2022/12/06 02:33:20;;;;;;;10.37;5.70;;;5.40;99.90;;;;;;4987484;28;20216;-65
2022/12/06 02:35:54;;;;;;;10.37;5.87;;;5.40;99.90;;;;;;4989357;28;20210;-65
2022/12/06 02:38:29;;;;;;;13.53;6.63;;;5.40;99.90;;;;;;4983565;28;20240;-65
2022/12/06 02:40:58;;;;;;;13.07;7.07;;;5.40;99.90;;;;;;4993767;28;22975;-65
2022/12/06 02:43:30;;;;;;;11.17;6.03;;;5.40;99.90;;;;;;5003989;28;20995;-65
2022/12/06 02:46:02;;;;;;;11.13;6.83;;;5.30;99.90;;;;;;4997656;28;20217;-65
2022/12/06 02:48:32;;;;;;;11.00;6.63;;;5.30;99.90;;;;;;5015798;28;20212;-65
2022/12/06 02:51:02;;;;;;;11.43;6.50;;;5.40;99.90;;;;;;5009442;28;20737;-65
2022/12/06 02:53:32;;;;;;;12.43;6.80;;;5.40;99.90;;;;;;5011594;28;20205;-65
2022/12/06 02:55:59;;;;;;;9.50;5.87;;;5.40;99.90;;;;;;5010754;28;20709;-65
2022/12/06 02:58:26;;;;;;;11.20;6.73;;;5.30;99.90;;;;;;5018380;28;20663;-65
2022/12/06 03:00:57;;;;;;;10.70;6.17;;;5.30;99.90;;;;;;4972860;28;20217;-65
2022/12/06 03:03:54;;;;;;;11.40;6.40;;;5.40;99.90;;;;;;5022638;28;20575;-65
2022/12/06 03:06:56;;;;;;;11.70;7.00;;;5.40;99.90;;;;;;5011040;28;20578;-65
2022/12/06 03:09:43;;;;;;;8.37;4.67;;;5.30;99.90;;;;;;5009775;28;20198;-65
2022/12/06 03:12:18;;;;;;;8.07;4.67;;;5.30;99.90;;;;;;5024844;28;20826;-65
2022/12/06 03:14:51;;;;;;;6.87;4.87;;;5.30;99.90;;;;;;4993353;28;20216;-65
2022/12/06 03:17:33;;;;;;;7.07;4.73;;;5.30;99.90;;;;;;5019203;28;20617;-65
2022/12/06 03:20:08;;;;;;;10.47;4.97;;;5.30;99.90;;;;;;5002199;28;20995;-65
2022/12/06 03:22:39;;;;;;;9.07;4.77;;;5.30;99.90;;;;;;5015129;28;20221;-65
2022/12/06 03:25:07;;;;;;;9.40;5.47;;;5.30;99.90;;;;;;5010359;28;21102;-65
2022/12/06 03:27:35;;;;;;;6.53;4.63;;;5.30;99.90;;;;;;5027148;28;20197;-65
2022/12/06 03:30:09;;;;;;;6.63;4.57;;;5.30;99.90;;;;;;5001341;28;20205;-65
2022/12/06 03:32:38;;;;;;;9.97;4.83;;;5.30;99.90;;;;;;5023247;28;20219;-65
2022/12/06 03:35:11;;;;;;;6.67;4.40;;;5.20;99.90;;;;;;5020435;28;20309;-65
2022/12/06 03:37:40;;;;;;;7.60;4.50;;;5.20;99.90;;;;;;5004913;28;20231;-65
2022/12/06 03:40:12;;;;;;;10.03;4.93;;;5.20;99.90;;;;;;5014421;28;20248;-65
2022/12/06 03:42:39;;;;;;;7.67;5.07;;;5.20;99.90;;;;;;5028642;28;20198;-65
2022/12/06 03:45:10;;;;;;;8.37;4.90;;;5.20;99.90;;;;;;4999332;28;20209;-66
2022/12/06 03:47:43;;;;;;;8.27;5.10;;;5.30;99.90;;;;;;5026900;28;20216;-65
2022/12/06 03:50:16;;;;;;;7.20;4.23;;;5.20;99.90;;;;;;5024551;28;20201;-65
2022/12/06 03:52:43;;;;;;;9.07;5.10;;;5.30;99.90;;;;;;5015622;28;20220;-65
2022/12/06 03:55:10;;;;;;;9.13;4.77;;;5.20;99.90;;;;;;5017115;28;20208;-65
2022/12/06 03:57:37;;;;;;;7.97;5.00;;;5.20;99.90;;;;;;5018397;28;20658;-66
2022/12/06 04:00:05;;;;;;;8.93;5.37;;;5.20;99.90;;;;;;5026824;28;20313;-65
2022/12/06 04:02:32;;;;;;;7.13;5.10;;;5.10;99.90;;;;;;4999170;28;20206;-66
2022/12/06 04:04:59;;;;;;;8.07;4.33;;;5.20;99.90;;;;;;5028250;28;20201;-65
2022/12/06 04:07:27;;;;;;;6.53;4.73;;;5.20;99.90;;;;;;5006609;28;20213;-65
2022/12/06 04:10:01;;;;;;;8.33;4.30;;;5.20;99.90;;;;;;5007350;28;20590;-65
2022/12/06 04:15:13;;;;;;;6.43;4.30;;;5.10;99.90;;;;;;5024607;28;20288;-65
2022/12/06 04:20:25;;;;;;;8.53;4.50;;;5.00;99.90;;;;;;5015392;28;20307;-65
2022/12/06 04:23:02;;;;;;;5.73;4.20;;;5.10;99.90;;;;;;5003763;28;21113;-65
2022/12/06 04:25:29;;;;;;;9.00;4.90;;;5.10;99.90;;;;;;5010432;28;20228;-65
2022/12/06 04:38:54;;;;;;;6.03;4.20;;;5.00;99.90;;;;;;4997961;28;20288;-66
2022/12/06 04:44:03;;;;;;;6.10;4.10;;;5.00;99.90;;;;;;5014981;28;20312;-65
2022/12/06 04:46:29;;;;;;;5.27;4.10;;;5.00;99.90;;;;;;5019605;28;20198;-65
2022/12/06 04:48:56;;;;;;;5.57;4.03;;;4.90;99.90;;;;;;4995116;28;20210;-65
2022/12/06 04:51:24;;;;;;;7.17;4.60;;;4.90;99.90;;;;;;5019122;28;20197;-65
2022/12/06 04:53:51;;;;;;;6.40;4.40;;;4.90;99.90;;;;;;5017367;28;20212;-65
2022/12/06 04:56:19;;;;;;;7.87;4.47;;;4.90;99.90;;;;;;5004935;28;20205;-65
2022/12/06 04:58:46;;;;;;;8.97;4.70;;;4.90;99.90;;;;;;5015300;28;20197;-65
2022/12/06 05:01:13;;;;;;;8.77;4.90;;;4.90;99.90;;;;;;5011736;28;22044;-65
2022/12/06 05:03:39;;;;;;;11.97;4.70;;;4.90;99.90;;;;;;4990461;28;20226;-66
2022/12/06 05:06:07;;;;;;;10.27;5.07;;;4.90;99.90;;;;;;5019941;28;20198;-65
2022/12/06 05:08:33;;;;;;;7.13;4.60;;;4.90;99.90;;;;;;5011860;28;20894;-65
2022/12/06 05:11:00;;;;;;;11.47;5.57;;;4.90;99.90;;;;;;5005891;28;20248;-65
2022/12/06 05:13:28;;;;;;;8.97;5.20;;;4.90;99.90;;;;;;5011777;28;20206;-65
2022/12/06 05:15:57;;;;;;;10.20;4.73;;;4.90;99.90;;;;;;5002554;28;20205;-65
2022/12/06 05:18:24;;;;;;;7.03;5.63;;;4.90;99.90;;;;;;5024053;28;20241;-65
2022/12/06 05:20:51;;;;;;;10.73;7.27;;;4.90;99.90;;;;;;4968439;28;20209;-65
2022/12/06 05:23:18;;;;;;;12.37;8.03;;;4.90;99.90;;;;;;5020570;28;20218;-66
2022/12/06 05:25:45;;;;;;;13.13;6.87;;;4.90;99.90;;;;;;4997884;28;20202;-66
2022/12/06 05:28:12;;;;;;;8.27;5.33;;;4.90;99.90;;;;;;5002736;28;20719;-65
2022/12/06 05:30:40;;;;;;;7.50;5.10;;;4.80;99.90;;;;;;5017761;28;20317;-65
2022/12/06 05:33:07;;;;;;;7.43;4.60;;;4.80;99.90;;;;;;5019781;28;20217;-66
2022/12/06 05:35:34;;;;;;;13.37;7.63;;;4.80;99.90;;;;;;4992311;28;20236;-65
2022/12/06 05:38:00;;;;;;;10.13;6.07;;;4.70;99.90;;;;;;5004248;28;20229;-65
2022/12/06 05:40:27;;;;;;;9.53;5.77;;;4.80;99.90;;;;;;4986966;28;20225;-66
2022/12/06 05:42:54;;;;;;;8.73;5.00;;;4.80;99.90;;;;;;4993140;28;20256;-65
2022/12/06 05:45:22;;;;;;;7.30;4.80;;;4.80;99.90;;;;;;5016750;28;20303;-66
2022/12/06 05:47:50;;;;;;;6.07;4.67;;;4.80;99.90;;;;;;5008905;28;20225;-66
2022/12/06 05:50:17;;;;;;;8.57;5.30;;;4.80;99.90;;;;;;4987972;28;21733;-66
2022/12/06 05:52:44;;;;;;;7.10;5.30;;;4.70;99.90;;;;;;5018740;28;20204;-65
2022/12/06 05:55:11;;;;;;;10.00;4.53;;;4.70;99.90;;;;;;4994720;28;20229;-66
2022/12/06 05:57:37;;;;;;;7.53;5.20;;;4.70;99.90;;;;;;5007021;28;20576;-66
2022/12/06 06:00:05;;;;;;;7.43;4.63;;;4.70;99.90;;;;;;5001831;28;20228;-65
2022/12/06 06:02:32;;;;;;;9.33;5.60;;;4.70;99.90;;;;;;5005778;28;20663;-66
2022/12/06 06:05:01;;;;;;;8.13;4.73;;;4.70;99.90;;;;;;5007699;28;20751;-67
2022/12/06 06:07:28;;;;;;;9.33;5.73;;;4.70;99.90;;;;;;5005488;28;20234;-66
2022/12/06 06:09:55;;;;;;;8.27;5.47;;;4.70;99.90;;;;;;5015278;28;20316;-67
2022/12/06 06:12:22;;;;;;;8.60;4.77;;;4.70;99.90;;;;;;5003882;28;20217;-67
2022/12/06 06:14:49;;;;;;;12.57;7.50;;;4.70;99.90;;;;;;5000073;28;20210;-67
2022/12/06 06:17:15;;;;;;;15.63;8.53;;;4.70;99.90;;;;;;5011713;28;20237;-66
2022/12/06 06:19:42;;;;;;;18.13;9.53;;;4.70;99.90;;;;;;5018246;28;20927;-67
2022/12/06 06:22:11;;;;;;;9.30;5.80;;;4.70;99.90;;;;;;4987657;28;20221;-66
2022/12/06 06:24:39;;;;;;;9.43;6.13;;;4.70;99.90;;;;;;5016145;28;20229;-67
2022/12/06 06:27:06;;;;;;;7.60;5.13;;;4.70;99.90;;;;;;5015466;28;20225;-66
2022/12/06 06:29:33;;;;;;;17.93;6.03;;;4.60;99.90;;;;;;4996532;28;20218;-66
2022/12/06 06:32:00;;;;;;;12.93;6.67;;;4.60;99.90;;;;;;5022041;28;20627;-66
2022/12/06 06:34:27;;;;;;;6.80;4.80;;;4.60;99.90;;;;;;5020322;28;20204;-66
2022/12/06 06:36:54;;;;;;;6.77;4.70;;;4.70;99.90;;;;;;4979924;28;20198;-67
2022/12/06 06:39:22;;;;;;;6.73;4.83;;;4.60;99.90;;;;;;5026427;28;20386;-66
2022/12/06 06:41:49;;;;;;;6.93;4.47;;;4.60;99.90;;;;;;5018796;28;20203;-66
2022/12/06 06:44:16;;;;;;;9.93;4.37;;;4.60;99.90;;;;;;5021725;28;20280;-67
2022/12/06 06:46:43;;;;;;;11.80;5.70;;;4.70;99.90;;;;;;5009757;28;20675;-66
2022/12/06 06:49:11;;;;;;;10.67;5.13;;;4.70;99.90;;;;;;5027693;28;20703;-66
2022/12/06 06:51:37;;;;;;;9.47;5.47;;;4.70;99.90;;;;;;4996615;28;20944;-66
2022/12/06 06:54:04;;;;;;;14.47;6.77;;;4.60;99.90;;;;;;5033583;28;20203;-67
2022/12/06 06:56:33;;;;;;;7.57;5.17;;;4.60;99.90;;;;;;5016745;28;20215;-67
2022/12/06 06:58:59;;;;;;;12.80;6.37;;;4.50;99.90;;;;;;5031130;28;20226;-66
2022/12/06 07:01:26;;;;;;;9.03;6.13;;;4.50;99.90;;;;;;5003649;28;20201;-67
2022/12/06 07:03:53;;;;;;;12.27;5.53;;;4.50;99.90;;;;;;5030606;28;20212;-67
2022/12/06 07:06:20;;;;;;;9.40;4.77;;;4.50;99.90;;;;;;4991211;28;20228;-67
2022/12/06 07:08:47;;;;;;;11.77;5.57;;;4.50;99.90;;;;;;4983029;28;20896;-66
2022/12/06 07:11:15;;;;;;;9.63;5.43;;;4.50;99.90;;;;;;5004817;28;20205;-66
2022/12/06 07:13:44;;;;;;;10.47;5.97;;;4.40;99.90;;;;;;5012379;28;20237;-66
2022/12/06 07:16:15;;;;;;;10.37;6.40;;;4.40;99.90;;;;;;5009486;28;20217;-66
2022/12/06 07:18:42;;;;;;;10.20;6.23;;;4.30;99.90;;;;;;4997674;28;20755;-66
2022/12/06 07:21:12;;;;;;;11.60;5.83;;;4.30;99.90;;;;;;5010993;28;20234;-66
2022/12/06 07:23:39;;;;;;;8.03;5.47;;;4.30;99.90;;;;;;4991188;28;20236;-66
2022/12/06 07:26:08;;;;;;;8.87;5.03;;;4.20;99.90;;;;;;5015547;28;20206;-66
2022/12/06 07:28:35;;;;;;;10.10;5.57;;;4.10;99.90;;;;;;5014873;28;20259;-66
2022/12/06 07:31:09;;;;;;;12.80;5.00;;;4.10;99.90;;;;;;5012082;28;22994;-66
2022/12/06 07:33:36;;;;;;;7.97;5.27;;;4.20;99.90;;;;;;5014587;28;20202;-65
2022/12/06 07:36:04;;;;;;;9.90;5.23;;;4.20;99.90;;;;;;5020480;28;20206;-66
2022/12/06 07:38:33;;;;;;;8.73;5.03;;;4.20;99.90;;;;;;5006449;28;20236;-67
2022/12/06 07:41:01;;;;;;;9.07;5.03;;;4.10;99.90;;;;;;4998176;28;20700;-66
2022/12/06 07:46:14;;;;;;;7.57;4.70;;;4.10;99.90;;;;;;5018677;28;20232;-67
2022/12/06 07:48:41;;;;;;;8.33;4.80;;;4.10;99.90;;;;;;5001650;28;20201;-66
2022/12/06 07:51:08;;;;;;;8.47;4.50;;;4.10;99.90;;;;;;5017723;28;20198;-66
2022/12/06 07:53:34;;;;;;;9.57;5.23;;;4.10;99.90;;;;;;5006058;28;20744;-66
2022/12/06 07:56:06;;;;;;;9.33;5.13;;;4.10;99.90;;;;;;4989951;28;20206;-66
2022/12/06 07:58:33;;;;;;;9.47;5.30;;;4.10;99.90;;;;;;5009322;28;20232;-67
2022/12/06 08:01:03;;;;;;;10.00;5.33;;;4.10;99.90;;;;;;5003442;28;20308;-66
2022/12/06 08:03:31;;;;;;;7.50;5.00;;;4.10;99.90;;;;;;5010795;28;21798;-67
2022/12/06 08:05:57;;;;;;;7.50;4.87;;;4.20;99.90;;;;;;5015996;28;20209;-66
2022/12/06 08:08:24;;;;;;;13.33;5.93;;;4.30;99.90;;;;;;5014053;28;20201;-66
2022/12/06 08:10:51;;;;;;;9.03;5.83;;;4.20;99.90;;;;;;4987064;28;20217;-66
2022/12/06 08:13:18;;;;;;;10.60;5.50;;;4.20;99.90;;;;;;5011857;28;20254;-67
2022/12/06 08:15:45;;;;;;;10.80;5.60;;;4.30;99.90;;;;;;5016167;28;20248;-66
2022/12/06 08:18:11;;;;;;;9.43;5.30;;;4.30;99.90;;;;;;5010878;28;20229;-66
2022/12/06 08:20:40;;;;;;;13.57;6.60;;;4.40;99.90;;;;;;4992860;28;20733;-67
2022/12/06 08:23:07;;;;;;;9.20;5.30;;;4.30;99.90;;;;;;5013060;28;20606;-66
2022/12/06 08:25:34;;;;;;;10.70;6.20;;;4.40;99.90;;;;;;4993525;28;20211;-67
2022/12/06 08:28:00;;;;;;;10.43;6.47;;;4.40;99.90;;;;;;5023535;28;20217;-65
2022/12/06 08:30:27;;;;;;;10.07;6.00;;;4.40;99.90;;;;;;4997049;28;20228;-66
2022/12/06 08:32:54;;;;;;;12.90;6.53;;;4.40;99.90;;;;;;5014697;28;20675;-66
2022/12/06 08:35:21;;;;;;;10.27;6.40;;;4.40;99.90;;;;;;5014294;28;20197;-66
2022/12/06 08:37:49;;;;;;;10.80;6.00;;;4.50;99.90;;;;;;5018516;28;20595;-67
2022/12/06 08:40:16;;;;;;;8.77;5.50;;;4.40;99.90;;;;;;5026439;28;20213;-66
2022/12/06 08:42:44;;;;;;;13.57;5.53;;;4.50;99.90;;;;;;4993422;28;20788;-66
2022/12/06 08:45:11;;;;;;;11.37;5.33;;;4.50;99.90;;;;;;5002576;28;20679;-66
2022/12/06 08:47:38;;;;;;;9.97;4.73;;;4.50;99.90;;;;;;5029128;28;20195;-66
2022/12/06 08:50:06;;;;;;;7.47;4.93;;;4.60;99.90;;;;;;5000963;28;20279;-66
2022/12/06 08:52:34;;;;;;;8.30;5.13;;;4.50;99.90;;;;;;5024055;28;20224;-67
2022/12/06 08:55:02;;;;;;;10.07;5.07;;;4.60;99.90;;;;;;5017444;28;20207;-66
2022/12/06 08:57:29;;;;;;;14.57;4.97;;;4.50;99.90;;;;;;4999997;28;20202;-66
2022/12/06 08:59:55;;;;;;;8.77;5.20;;;4.50;99.90;;;;;;4994325;28;20212;-66
2022/12/06 09:02:22;;;;;;;10.10;6.43;;;4.60;99.90;;;;;;5025041;28;20205;-67
2022/12/06 09:04:50;;;;;;;13.30;6.47;;;4.60;99.90;;;;;;5015487;28;20807;-66
2022/12/06 09:07:17;;;;;;;13.27;6.10;;;4.60;99.90;;;;;;5012971;28;20215;-67
2022/12/06 09:09:45;;;;;;;9.50;5.57;;;4.60;99.90;;;;;;5014571;28;20209;-67
2022/12/06 09:12:13;;;;;;;10.47;5.50;;;4.60;99.90;;;;;;5026831;28;20198;-67
2022/12/06 09:14:40;;;;;;;8.77;5.60;;;4.60;99.90;;;;;;4996599;28;20205;-67
2022/12/06 09:17:07;;;;;;;13.33;4.87;;;4.60;99.90;;;;;;5003779;28;20268;-66
2022/12/06 09:19:34;;;;;;;9.13;5.63;;;4.60;99.90;;;;;;5012754;28;20233;-66
2022/12/06 09:22:01;;;;;;;14.37;5.23;;;4.70;99.90;;;;;;5011088;28;21275;-67
2022/12/06 09:24:27;;;;;;;8.27;4.90;;;4.70;99.90;;;;;;5011648;28;21278;-67
2022/12/06 09:26:54;;;;;;;9.47;4.50;;;4.70;99.90;;;;;;5022732;28;20198;-67
2022/12/06 09:29:23;;;;;;;8.17;4.97;;;4.70;99.90;;;;;;5002092;28;20226;-67
2022/12/06 09:31:50;;;;;;;11.33;4.60;;;4.70;99.90;;;;;;5002175;28;20205;-67
2022/12/06 09:34:17;;;;;;;6.07;4.10;;;4.80;99.90;;;;;;5014751;28;20210;-67
2022/12/06 09:36:48;;;;;;;7.33;4.47;;;4.80;99.90;;;;;;5025081;28;20208;-66
2022/12/06 09:39:18;;;;;;;5.60;3.90;;;4.80;99.90;;;;;;5002448;28;20229;-67
2022/12/06 09:42:11;;;;;;;8.90;4.87;;;4.80;99.90;;;;;;5023181;28;20209;-66
2022/12/06 09:44:59;;;;;;;6.47;3.93;;;4.80;99.90;;;;;;4991299;28;20229;-67
2022/12/06 09:47:36;;;;;;;7.73;4.23;;;4.90;99.90;;;;;;4992689;28;20671;-67
2022/12/06 09:50:11;;;;;;;8.73;4.40;;;4.80;99.90;;;;;;5019829;28;20205;-66
2022/12/06 09:53:00;;;;;;;9.53;4.13;;;4.90;99.90;;;;;;5016197;28;20213;-66
2022/12/06 09:55:39;;;;;;;9.57;4.60;;;4.80;99.90;;;;;;4993706;28;20202;-67
2022/12/06 09:58:15;;;;;;;7.10;4.27;;;4.80;99.90;;;;;;5017605;28;20232;-66
2022/12/06 10:00:48;;;;;;;6.30;4.23;;;4.80;99.90;;;;;;4974056;28;20227;-66
2022/12/06 10:03:45;;;;;;;6.43;4.20;;;4.90;99.90;;;;;;4999647;28;20225;-67
2022/12/06 10:06:15;;;;;;;5.80;3.90;;;4.90;99.90;;;;;;5008692;28;20706;-67
2022/12/06 10:09:07;;;;;;;6.07;4.30;;;4.90;99.90;;;;;;5006716;28;20223;-66
2022/12/06 10:11:53;;;;;;;5.57;3.70;;;4.90;99.90;;;;;;5001696;28;20242;-67
2022/12/06 10:14:37;;;;;;;7.70;3.47;;;6.30;99.90;;;;;;5003707;28;21063;-67
2022/12/06 10:17:18;;;;;;;7.20;3.53;;;5.00;99.90;;;;;;4998717;28;20321;-66
2022/12/06 10:19:57;;;;;;;8.87;3.70;;;5.10;99.90;;;;;;5023400;28;20229;-68
2022/12/06 10:22:31;;;;;;;6.20;3.40;;;5.10;99.90;;;;;;5007916;28;20198;-67
2022/12/06 10:25:07;;;;;;;6.37;3.57;;;5.10;99.90;;;;;;5026816;28;20208;-67
2022/12/06 10:27:38;;;;;;;8.50;4.43;;;5.00;99.90;;;;;;4996575;28;20205;-67
2022/12/06 10:30:09;;;;;;;12.33;4.87;;;5.10;99.90;;;;;;4997450;28;20205;-66
2022/12/06 10:32:50;;;;;;;9.13;4.40;;;5.00;99.90;;;;;;5003824;28;20289;-66
2022/12/06 10:35:21;;;;;;;8.07;4.23;;;5.10;99.90;;;;;;5015377;28;20205;-67
2022/12/06 10:37:59;;;;;;;11.33;4.20;;;5.20;99.90;;;;;;5014990;28;20653;-66
2022/12/06 10:40:30;;;;;;;6.57;3.10;;;5.10;99.90;;;;;;5012290;28;20213;-66
2022/12/06 10:43:04;;;;;;;7.43;3.10;;;5.10;99.90;;;;;;5023814;28;20193;-65
2022/12/06 10:48:27;;;;;;;4.83;2.83;;;5.00;99.90;;;;;;4998177;28;20248;-67
2022/12/06 10:50:59;;;;;;;3.17;2.37;;;5.00;99.90;;;;;;5014457;28;20197;-65
2022/12/06 10:53:31;;;;;;;5.53;3.70;;;4.90;99.90;;;;;;5011833;28;20606;-66
2022/12/06 10:56:04;;;;;;;6.43;2.50;;;4.90;99.90;;;;;;5027164;28;20671;-65
2022/12/06 10:58:38;;;;;;;3.77;2.77;;;4.90;99.90;;;;;;5008623;28;20217;-65
2022/12/06 11:01:09;;;;;;;3.77;2.70;;;4.90;99.90;;;;;;4996512;28;20742;-66
2022/12/06 11:03:41;;;;;;;3.77;2.40;;;4.80;99.90;;;;;;5013027;28;20212;-67
2022/12/06 11:06:12;;;;;;;6.20;2.40;;;4.90;99.90;;;;;;5014035;28;20312;-67
2022/12/06 11:08:43;;;;;;;4.40;2.80;;;4.90;99.90;;;;;;5010459;28;20206;-66
2022/12/06 11:11:14;;;;;;;3.60;2.57;;;4.80;99.90;;;;;;5020013;28;20198;-66
2022/12/06 11:13:46;;;;;;;9.07;4.67;;;4.80;99.90;;;;;;5011927;28;20213;-66
2022/12/06 11:16:18;;;;;;;5.23;3.40;;;4.80;99.90;;;;;;4996314;28;20213;-66
2022/12/06 11:18:48;;;;;;;5.97;3.43;;;4.80;99.90;;;;;;5007909;28;20234;-67
2022/12/06 11:21:25;;;;;;;4.93;2.70;;;4.80;99.90;;;;;;5023287;28;20216;-67
2022/12/06 11:24:00;;;;;;;2.90;2.00;;;4.80;99.90;;;;;;5013011;28;20581;-66
2022/12/06 11:26:35;;;;;;;3.43;2.40;;;4.80;99.90;;;;;;5022660;28;20220;-66
2022/12/06 11:29:05;;;;;;;2.60;2.00;;;4.80;99.90;;;;;;5011957;28;20200;-66
2022/12/06 11:31:36;;;;;;;2.73;2.07;;;4.80;99.90;;;;;;4980162;28;20339;-66
2022/12/06 11:34:06;;;;;;;2.83;2.13;;;4.70;99.90;;;;;;5006902;28;20239;-67
2022/12/06 11:36:34;;;;;;;3.27;1.83;;;4.80;99.90;;;;;;5016879;28;20214;-66
2022/12/06 11:39:01;;;;;;;3.07;2.13;;;4.70;99.90;;;;;;5007386;28;20646;-65
2022/12/06 11:41:31;;;;;;;3.40;2.13;;;4.70;99.90;;;;;;5007422;28;20218;-66
2022/12/06 11:43:58;;;;;;;4.47;2.60;;;4.70;99.90;;;;;;4999596;28;20228;-66
2022/12/06 11:46:26;;;;;;;3.00;2.43;;;4.70;99.90;;;;;;5013413;28;21087;-65
2022/12/06 11:48:54;;;;;;;5.97;3.90;;;4.60;99.90;;;;;;4993085;28;20292;-66
2022/12/06 11:51:24;;;;;;;5.70;2.67;;;4.60;99.90;;;;;;5016555;28;20209;-66
2022/12/06 11:53:59;;;;;;;10.77;5.30;;;4.70;99.90;;;;;;5010453;28;20209;-66
2022/12/06 11:56:27;;;;;;;2.87;2.40;;;4.70;99.90;;;;;;5012378;28;20803;-66
2022/12/06 11:59:06;;;;;;;3.37;2.10;;;4.70;99.90;;;;;;5016494;28;20228;-66
2022/12/06 12:01:43;;;;;;;3.70;2.87;;;4.80;99.90;;;;;;5005514;28;20209;-66
2022/12/06 12:04:31;;;;;;;3.80;3.10;;;4.80;99.90;;;;;;5028854;28;20204;-65
2022/12/06 12:07:03;;;;;;;4.40;3.53;;;4.70;99.90;;;;;;5021232;28;20197;-66
2022/12/06 12:09:33;;;;;;;2.57;2.00;;;4.80;99.90;;;;;;5028035;28;20209;-67
2022/12/06 12:12:04;;;;;;;2.93;2.10;;;4.80;99.90;;;;;;5021018;28;20224;-65
2022/12/06 12:14:38;;;;;;;3.20;2.10;;;4.80;99.90;;;;;;5013761;28;20210;-66
2022/12/06 12:17:16;;;;;;;4.60;2.17;;;4.80;99.90;;;;;;5009954;28;20229;-65
2022/12/06 12:19:46;;;;;;;4.97;1.90;;;4.70;99.90;;;;;;4989663;28;20299;-66
2022/12/06 12:22:29;;;;;;;3.17;2.33;;;4.80;99.90;;;;;;5020702;28;20217;-65
2022/12/06 12:24:57;;;;;;;2.70;2.13;;;4.70;99.90;;;;;;5023845;28;20201;-66
2022/12/06 12:27:33;;;;;;;4.37;2.70;;;4.70;99.90;;;;;;5025552;28;20197;-65
2022/12/06 12:30:25;;;;;;;1.70;1.50;;;4.60;99.90;;;;;;5008457;28;20663;-67
2022/12/06 12:33:08;;;;;;;2.67;2.47;;;4.60;99.90;;;;;;5010174;28;20568;-66
2022/12/06 12:35:36;;;;;;;1.37;1.20;;;4.60;99.90;;;;;;4994794;28;20579;-66
2022/12/06 12:38:15;;;;;;;8.70;3.40;;;4.60;99.90;;;;;;5010798;28;20925;-65
2022/12/06 12:40:45;;;;;;;3.57;2.87;;;4.50;99.90;;;;;;5022804;28;20225;-65
2022/12/06 12:43:19;;;;;;;4.17;3.20;;;4.60;99.90;;;;;;5021477;28;20202;-66
2022/12/06 12:46:19;;;;;;;3.93;2.60;;;4.50;99.90;;;;;;5012670;28;20201;-66
2022/12/06 12:48:48;;;;;;;2.10;1.90;;;4.50;99.90;;;;;;5022245;28;20207;-66
2022/12/06 12:51:27;;;;;;;8.07;2.50;;;4.50;99.90;;;;;;4999098;28;20210;-66
2022/12/06 12:53:57;;;;;;;2.93;2.20;;;4.50;99.90;;;;;;5015156;28;20205;-66
2022/12/06 12:56:24;;;;;;;1.53;1.40;;;4.50;99.90;;;;;;5024273;28;20276;-66
2022/12/06 12:58:53;;;;;;;1.80;1.60;;;4.40;99.90;;;;;;4988894;28;20221;-66
2022/12/06 13:01:36;;;;;;;1.97;1.63;;;4.40;99.90;;;;;;5006264;28;20225;-67
2022/12/06 13:04:07;;;;;;;1.57;1.40;;;4.40;99.90;;;;;;5002049;28;20650;-65
2022/12/06 13:06:42;;;;;;;3.77;1.57;;;4.30;99.90;;;;;;5000755;28;20216;-65
2022/12/06 13:09:15;;;;;;;2.20;1.70;;;4.30;99.90;;;;;;5008035;28;20212;-66
2022/12/06 13:11:46;;;;;;;2.30;1.77;;;4.30;99.90;;;;;;5022770;28;20209;-66
2022/12/06 13:14:18;;;;;;;2.30;1.83;;;4.30;99.90;;;;;;5021399;28;20220;-65
2022/12/06 13:16:48;;;;;;;4.20;2.33;;;4.30;99.90;;;;;;5007180;28;20199;-65
2022/12/06 13:19:18;;;;;;;4.17;2.17;;;4.20;99.90;;;;;;4989795;28;20229;-65
2022/12/06 13:21:45;;;;;;;2.27;1.80;;;4.20;99.90;;;;;;4970962;28;20750;-66
2022/12/06 13:24:21;;;;;;;1.77;1.57;;;4.30;99.90;;;;;;5002865;28;20237;-66
2022/12/06 13:26:51;;;;;;;2.17;1.40;;;4.30;99.90;;;;;;5012994;28;20220;-65
2022/12/06 13:29:26;;;;;;;3.23;1.67;;;4.40;99.90;;;;;;5025850;28;20198;-65
2022/12/06 13:31:56;;;;;;;1.93;1.37;;;4.40;99.90;;;;;;5004558;28;20201;-66
2022/12/06 13:34:30;;;;;;;4.27;2.60;;;4.40;99.90;;;;;;4998421;28;20237;-66